Time;durP1;ratioP1;P1;durP2;ratioP2;P2;SDS_P1;SDS_P2;PMS_P1;PMS_P2;Temp;Humidity;BMP_temperature;BMP_pressure;BME280_temperature;BME280_humidity;BME280_pressure;Samples;Min_cycle;Max_cycle;Signal;HPM_P1;HPM_P2
2021/06/21 00:02:04;;;;;;;10.73;3.80;;;;;;;20.53;72.19;100193.88;4838530;29;20054;-86
2021/06/21 00:04:30;;;;;;;8.35;4.03;;;;;;;20.42;72.99;100192.53;4828828;29;20040;-84
2021/06/21 00:06:57;;;;;;;7.10;3.75;;;;;;;20.37;73.51;100195.88;4873282;29;20462;-84
2021/06/21 00:09:22;;;;;;;6.97;3.65;;;;;;;20.38;73.27;100196.72;4869397;29;20124;-83
2021/06/21 00:11:48;;;;;;;6.72;4.47;;;;;;;20.35;73.23;100192.47;4817590;29;20116;-82
2021/06/21 00:14:15;;;;;;;6.05;3.83;;;;;;;20.37;73.42;100200.53;4837094;29;20045;-82
2021/06/21 00:16:41;;;;;;;4.78;3.65;;;;;;;20.26;73.41;100187.31;4839987;29;20128;-82
2021/06/21 00:19:07;;;;;;;6.05;3.85;;;;;;;20.29;73.50;100196.00;4843809;29;20045;-85
2021/06/21 00:21:34;;;;;;;6.68;3.83;;;;;;;20.28;73.27;100196.22;4816585;29;20049;-86
2021/06/21 00:24:01;;;;;;;4.43;3.72;;;;;;;20.23;73.62;100191.34;4849785;29;20060;-81
2021/06/21 00:26:27;;;;;;;6.80;3.80;;;;;;;20.20;73.60;100189.84;4841430;29;20045;-84
2021/06/21 00:28:53;;;;;;;6.18;3.88;;;;;;;20.16;74.06;100195.94;4858580;29;20045;-83
2021/06/21 00:31:19;;;;;;;5.50;3.70;;;;;;;20.15;73.79;100202.50;4861733;29;20113;-83
2021/06/21 00:33:44;;;;;;;4.60;3.65;;;;;;;20.17;73.68;100208.63;4841200;29;20049;-82
2021/06/21 00:36:10;;;;;;;4.65;3.30;;;;;;;20.14;74.02;100200.78;4808589;29;20113;-82
2021/06/21 00:38:36;;;;;;;4.22;3.83;;;;;;;20.11;73.67;100201.16;4855919;29;20052;-82
2021/06/21 00:41:02;;;;;;;7.18;3.78;;;;;;;20.09;73.98;100204.13;4821451;29;20369;-84
2021/06/21 00:43:28;;;;;;;7.45;3.75;;;;;;;20.04;73.99;100197.53;4841367;29;20041;-83
2021/06/21 00:45:54;;;;;;;4.13;3.70;;;;;;;19.92;74.47;100197.22;4859865;29;20338;-82
2021/06/21 00:48:20;;;;;;;6.05;4.05;;;;;;;19.93;74.16;100205.28;4838850;29;20180;-82
2021/06/21 00:50:46;;;;;;;4.18;3.40;;;;;;;19.93;74.22;100193.47;4838097;29;20079;-80
2021/06/21 00:53:12;;;;;;;4.32;3.67;;;;;;;19.89;74.82;100201.25;4840616;29;20045;-83
2021/06/21 00:55:38;;;;;;;4.88;3.60;;;;;;;19.81;75.48;100201.34;4839861;29;20052;-83
2021/06/21 00:58:04;;;;;;;7.18;3.80;;;;;;;19.72;75.39;100197.06;4831071;29;20037;-82
2021/06/21 01:00:30;;;;;;;6.47;3.90;;;;;;;19.70;75.66;100199.16;4839095;29;20468;-83
2021/06/21 01:03:07;;;;;;;6.40;4.13;;;;;;;19.75;75.32;100203.00;4827791;29;20052;-80
2021/06/21 01:05:37;;;;;;;5.55;3.85;;;;;;;19.70;75.60;100201.88;4837801;29;20041;-82
2021/06/21 01:08:11;;;;;;;6.05;3.67;;;;;;;19.71;75.37;100201.72;4854230;29;20045;-81
2021/06/21 01:10:40;;;;;;;5.00;3.70;;;;;;;19.70;75.18;100199.16;4840284;29;20510;-84
2021/06/21 01:13:18;;;;;;;4.88;3.53;;;;;;;19.73;74.97;100204.25;4845136;29;20089;-81
2021/06/21 01:16:20;;;;;;;3.83;3.50;;;;;;;19.69;75.11;100191.97;4807097;29;20064;-83
2021/06/21 01:18:59;;;;;;;4.45;3.92;;;;;;;19.67;75.36;100197.66;4845563;29;20049;-84
2021/06/21 01:22:02;;;;;;;5.00;3.90;;;;;;;19.65;74.93;100207.13;4850984;29;20067;-83
2021/06/21 01:24:46;;;;;;;5.70;4.13;;;;;;;19.58;75.91;100203.44;4859217;29;20053;-82
2021/06/21 01:27:24;;;;;;;5.20;3.88;;;;;;;19.57;75.69;100191.63;4859759;29;20069;-82
2021/06/21 01:30:08;;;;;;;6.55;4.30;;;;;;;19.57;75.96;100194.38;4844411;29;20060;-80
2021/06/21 01:32:38;;;;;;;6.00;4.10;;;;;;;19.58;75.82;100197.97;4831122;29;20468;-80
2021/06/21 01:35:05;;;;;;;5.28;4.05;;;;;;;19.56;76.03;100197.28;4836752;29;20554;-81
2021/06/21 01:37:32;;;;;;;5.47;4.18;;;;;;;19.54;76.37;100193.91;4843089;29;20097;-80
2021/06/21 01:39:59;;;;;;;6.43;4.00;;;;;;;19.59;76.41;100197.75;4823275;29;20142;-82
2021/06/21 01:42:25;;;;;;;7.15;4.18;;;;;;;19.58;76.70;100200.69;4840838;29;20113;-83
2021/06/21 01:45:01;;;;;;;5.28;4.30;;;;;;;19.54;76.28;100205.72;4825497;29;20095;-82
2021/06/21 01:47:29;;;;;;;4.97;4.38;;;;;;;19.47;76.25;100205.66;4837868;29;20132;-82
2021/06/21 01:49:56;;;;;;;5.20;4.70;;;;;;;19.49;75.76;100206.31;4832974;29;20049;-81
2021/06/21 01:52:23;;;;;;;5.60;5.10;;;;;;;19.51;76.12;100206.13;4859368;29;20056;-81
2021/06/21 01:54:53;;;;;;;6.13;4.63;;;;;;;19.47;76.00;100208.41;4835591;29;20077;-83
2021/06/21 01:57:25;;;;;;;5.22;4.72;;;;;;;19.42;76.02;100207.31;4839443;29;20045;-81
2021/06/21 01:59:53;;;;;;;5.38;4.97;;;;;;;19.36;76.02;100208.91;4823490;29;20068;-80
2021/06/21 02:02:21;;;;;;;5.25;4.65;;;;;;;19.32;76.48;100217.72;4827182;29;20046;-84
2021/06/21 02:04:49;;;;;;;5.20;4.70;;;;;;;19.30;76.52;100215.16;4820211;29;20130;-81
2021/06/21 02:07:16;;;;;;;6.25;5.10;;;;;;;19.34;76.52;100224.69;4828000;29;20050;-81
2021/06/21 02:09:43;;;;;;;5.90;5.20;;;;;;;19.31;76.13;100205.91;4856301;29;20041;-83
2021/06/21 02:12:09;;;;;;;6.93;5.40;;;;;;;19.40;76.24;100221.19;4841736;29;20069;-83
2021/06/21 02:14:35;;;;;;;6.13;5.57;;;;;;;19.42;76.37;100213.63;4856931;29;20561;-83
2021/06/21 02:17:02;;;;;;;6.55;5.30;;;;;;;19.47;76.21;100213.03;4825819;29;20073;-83
2021/06/21 02:19:30;;;;;;;5.25;4.85;;;;;;;19.51;75.74;100217.94;4859934;29;20125;-83
2021/06/21 02:21:57;;;;;;;6.10;5.53;;;;;;;19.58;75.54;100211.66;4856829;29;20049;-83
2021/06/21 02:24:23;;;;;;;6.78;5.70;;;;;;;19.63;75.46;100204.56;4826449;29;20041;-84
2021/06/21 02:26:50;;;;;;;6.20;5.43;;;;;;;19.72;75.41;100210.78;4853593;29;20128;-84
2021/06/21 02:29:19;;;;;;;6.88;5.28;;;;;;;19.82;75.27;100208.56;4821398;29;20045;-81
2021/06/21 02:31:46;;;;;;;6.18;5.57;;;;;;;19.86;75.23;100209.88;4845275;29;20069;-81
2021/06/21 02:34:13;;;;;;;7.55;5.63;;;;;;;19.94;74.91;100215.19;4810336;29;20072;-83
2021/06/21 02:36:39;;;;;;;6.15;5.57;;;;;;;20.01;74.64;100219.91;4850385;29;20523;-83
2021/06/21 02:39:06;;;;;;;6.93;6.05;;;;;;;20.06;74.61;100214.66;4841917;29;20048;-82
2021/06/21 02:41:32;;;;;;;7.22;5.75;;;;;;;20.15;74.33;100207.97;4839736;29;20042;-80
2021/06/21 02:43:58;;;;;;;7.22;6.20;;;;;;;20.22;73.59;100208.88;4808727;29;20165;-82
2021/06/21 02:46:24;;;;;;;6.80;5.60;;;;;;;20.34;73.46;100218.25;4853840;29;20133;-81
2021/06/21 02:48:51;;;;;;;6.10;5.50;;;;;;;20.45;73.35;100209.44;4859119;29;20628;-83
2021/06/21 02:51:22;;;;;;;7.25;5.70;;;;;;;20.62;72.73;100210.00;4859618;29;20296;-85
2021/06/21 02:54:37;;;;;;;7.38;5.70;;;;;;;20.72;72.03;100198.63;4827677;29;20130;-82
2021/06/21 02:57:08;;;;;;;6.00;5.40;;;;;;;20.90;71.61;100211.81;4793292;29;20457;-82
2021/06/21 02:59:37;;;;;;;6.18;5.57;;;;;;;21.12;70.46;100224.38;4860986;29;20511;-83
2021/06/21 03:02:05;;;;;;;6.63;5.70;;;;;;;21.12;70.39;100209.78;4843016;29;20041;-82
2021/06/21 03:04:45;;;;;;;7.07;6.35;;;;;;;21.24;69.99;100219.13;4840031;29;20048;-84
2021/06/21 03:07:18;;;;;;;7.03;6.30;;;;;;;21.30;69.50;100221.06;4818872;29;20054;-82
2021/06/21 03:09:44;;;;;;;;;;;;;;;21.36;68.33;100225.78;4821857;29;20144;-83
2021/06/21 03:12:12;;;;;;;8.35;7.55;;;;;;;21.46;68.20;100222.59;4813526;29;19935;-82
2021/06/21 03:14:43;;;;;;;9.23;8.25;;;;;;;21.52;67.94;100221.78;4857070;29;20067;-83
2021/06/21 03:17:10;;;;;;;8.80;8.05;;;;;;;21.61;67.23;100223.28;4821796;29;20049;-83
2021/06/21 03:19:37;;;;;;;9.63;8.73;;;;;;;21.72;67.46;100232.84;4840116;29;20049;-83
2021/06/21 03:22:04;;;;;;;9.32;8.52;;;;;;;21.84;66.93;100235.81;4837728;29;20044;-82
2021/06/21 03:24:30;;;;;;;9.30;8.48;;;;;;;21.82;67.12;100224.97;4828060;29;20049;-85
2021/06/21 03:26:57;;;;;;;10.98;8.43;;;;;;;21.78;67.39;100231.97;4825856;29;20085;-85
2021/06/21 03:29:24;;;;;;;9.57;8.30;;;;;;;21.68;67.93;100234.28;4830075;29;20150;-82
2021/06/21 03:31:53;;;;;;;9.38;8.50;;;;;;;21.82;67.39;100227.75;4829844;29;20080;-85
2021/06/21 03:34:22;;;;;;;9.93;8.85;;;;;;;21.91;66.50;100236.66;4857669;29;20113;-84
2021/06/21 03:36:49;;;;;;;10.07;9.07;;;;;;;22.16;65.80;100239.66;4810482;29;20127;-83
2021/06/21 03:39:16;;;;;;;10.60;9.50;;;;;;;22.37;65.36;100233.91;4840492;29;20037;-82
2021/06/21 03:41:42;;;;;;;10.90;9.43;;;;;;;22.51;64.14;100236.63;4826588;29;20042;-82
2021/06/21 03:44:08;;;;;;;10.38;9.30;;;;;;;22.55;63.92;100229.63;4813634;29;20034;-82
2021/06/21 03:46:34;;;;;;;10.00;9.10;;;;;;;22.75;62.99;100238.72;4829525;29;20042;-83
2021/06/21 03:49:00;;;;;;;13.43;9.00;;;;;;;22.83;62.42;100238.47;4843741;29;20114;-85
2021/06/21 03:51:27;;;;;;;9.30;8.50;;;;;;;23.02;62.14;100241.41;4837589;29;20052;-83
2021/06/21 03:53:53;;;;;;;8.50;7.63;;;;;;;23.15;61.01;100244.13;4829370;29;20046;-81
2021/06/21 03:56:19;;;;;;;8.10;7.40;;;;;;;23.37;60.68;100241.03;4843632;29;20085;-83
2021/06/21 03:58:48;;;;;;;7.30;6.60;;;;;;;23.70;59.00;100241.72;4841449;29;20160;-85
2021/06/21 04:01:15;;;;;;;7.43;6.70;;;;;;;23.95;58.95;100249.16;4849484;29;20052;-84
2021/06/21 04:03:41;;;;;;;7.97;6.82;;;;;;;24.27;57.85;100242.50;4821032;29;20056;-85
2021/06/21 04:06:07;;;;;;;7.75;6.13;;;;;;;24.48;57.52;100248.75;4843526;29;20076;-85
2021/06/21 04:08:34;;;;;;;7.05;6.28;;;;;;;24.84;56.62;100249.84;4833792;29;20050;-84
2021/06/21 04:11:00;;;;;;;8.07;7.28;;;;;;;25.01;56.08;100250.91;4809956;29;20045;-83
2021/06/21 04:13:28;;;;;;;7.70;6.90;;;;;;;25.15;55.58;100249.72;4823323;29;20045;-83
2021/06/21 04:15:55;;;;;;;8.13;6.53;;;;;;;25.49;55.18;100258.44;4816509;29;20041;-83
2021/06/21 04:18:21;;;;;;;7.88;6.60;;;;;;;25.46;54.79;100256.13;4857614;29;20067;-82
2021/06/21 04:20:48;;;;;;;7.13;6.45;;;;;;;25.74;54.24;100263.81;4838731;29;20042;-85
2021/06/21 04:23:15;;;;;;;6.82;6.22;;;;;;;26.06;53.31;100249.72;4814912;29;20070;-84
2021/06/21 04:25:41;;;;;;;6.90;5.82;;;;;;;26.46;52.22;100255.44;4860153;29;20051;-82
2021/06/21 04:28:08;;;;;;;7.03;6.43;;;;;;;26.72;52.54;100253.25;4839388;29;20443;-83
2021/06/21 04:30:36;;;;;;;5.70;5.20;;;;;;;27.12;51.01;100253.34;4821159;29;20045;-83
2021/06/21 04:33:03;;;;;;;6.10;5.38;;;;;;;27.45;50.25;100258.19;4843619;29;20064;-84
2021/06/21 04:35:29;;;;;;;5.97;4.90;;;;;;;27.70;49.29;100248.66;4843194;29;20566;-84
2021/06/21 04:37:56;;;;;;;6.57;5.00;;;;;;;28.03;48.92;100259.00;4837755;29;20037;-83
2021/06/21 04:40:25;;;;;;;5.90;4.88;;;;;;;28.26;48.29;100252.44;4860806;29;20238;-83
2021/06/21 04:42:51;;;;;;;7.97;5.10;;;;;;;28.40;47.66;100256.59;4832039;29;20057;-83
2021/06/21 04:45:18;;;;;;;8.32;4.88;;;;;;;28.71;47.10;100254.28;4855836;29;20045;-80
2021/06/21 04:47:45;;;;;;;5.43;4.90;;;;;;;29.12;46.94;100252.94;4862770;29;20069;-81
2021/06/21 04:50:13;;;;;;;5.05;4.55;;;;;;;29.37;46.18;100257.13;4867657;29;20046;-85
2021/06/21 04:52:41;;;;;;;5.30;4.32;;;;;;;29.68;45.03;100261.13;4825079;29;20562;-87
2021/06/21 04:55:09;;;;;;;5.05;4.20;;;;;;;29.94;43.99;100251.06;4860443;29;20044;-84
2021/06/21 04:57:36;;;;;;;4.50;4.10;;;;;;;30.14;43.86;100254.06;4827351;29;20132;-83
2021/06/21 05:00:09;;;;;;;7.22;4.07;;;;;;;30.46;43.28;100253.22;4845736;29;20076;-86
2021/06/21 05:02:36;;;;;;;5.05;4.32;;;;;;;30.68;42.88;100258.69;4828373;29;20034;-83
2021/06/21 05:05:03;;;;;;;5.43;3.83;;;;;;;30.92;42.14;100261.91;4855109;29;20045;-85
2021/06/21 05:07:30;;;;;;;4.43;3.72;;;;;;;31.22;40.97;100255.59;4829703;29;20041;-84
2021/06/21 05:09:57;;;;;;;4.55;3.80;;;;;;;31.33;39.84;100254.56;4832158;29;20046;-85
2021/06/21 05:12:24;;;;;;;3.35;2.83;;;;;;;31.60;38.28;100245.16;4842169;29;20094;-85
2021/06/21 05:14:50;;;;;;;2.53;2.33;;;;;;;31.84;37.16;100257.50;4832569;29;20049;-83
2021/06/21 05:17:17;;;;;;;3.00;2.35;;;;;;;31.46;37.78;100256.84;4819188;29;20045;-84
2021/06/21 05:19:44;;;;;;;2.83;2.42;;;;;;;30.86;38.71;100262.97;4864335;29;20042;-88
2021/06/21 05:22:15;;;;;;;3.80;2.47;;;;;;;30.85;38.18;100262.13;4848557;29;20053;-85
2021/06/21 05:24:42;;;;;;;3.42;3.10;;;;;;;30.94;39.16;100260.53;4832901;29;20076;-84
2021/06/21 05:27:08;;;;;;;2.25;1.45;;;;;;;30.40;37.05;100255.13;4807952;29;20113;-85
2021/06/21 05:29:36;;;;;;;1.55;1.23;;;;;;;30.51;37.38;100262.47;4806692;29;20049;-81
2021/06/21 05:32:08;;;;;;;3.42;1.70;;;;;;;30.67;37.92;100259.75;4819699;29;20069;-82
2021/06/21 05:34:35;;;;;;;3.67;1.60;;;;;;;30.40;37.81;100257.06;4826363;29;20517;-84
2021/06/21 05:37:02;;;;;;;2.65;1.45;;;;;;;30.29;38.95;100255.31;4851679;29;20081;-84
2021/06/21 05:39:29;;;;;;;2.97;1.42;;;;;;;29.69;39.44;100262.81;4823240;29;20041;-85
2021/06/21 05:41:58;;;;;;;2.10;1.40;;;;;;;29.30;40.55;100258.16;4829864;29;20064;-83
2021/06/21 05:44:26;;;;;;;1.50;1.20;;;;;;;29.33;40.66;100255.97;4810963;29;20042;-87
2021/06/21 05:46:59;;;;;;;2.92;1.30;;;;;;;29.41;40.18;100259.13;4824872;29;20062;-84
2021/06/21 05:49:29;;;;;;;1.80;1.20;;;;;;;29.51;39.96;100259.25;4808955;29;20056;-81
2021/06/21 05:51:56;;;;;;;1.40;1.30;;;;;;;30.17;38.76;100264.72;4836441;29;20109;-81
2021/06/21 05:54:23;;;;;;;1.30;1.15;;;;;;;30.27;37.92;100261.16;4821572;29;20045;-80
2021/06/21 05:56:48;;;;;;;1.88;1.60;;;;;;;31.15;37.55;100257.81;4838419;29;20088;-81
2021/06/21 06:02:45;;;;;;;2.47;1.67;;;;;;;31.70;36.61;100256.34;5889340;23;20046;31
2021/06/21 06:08:16;;;;;;;1.67;1.40;;;;;;;32.02;35.90;100252.50;5951650;23;20016;-86
2021/06/21 06:10:43;;;;;;;2.08;1.88;;;;;;;32.33;36.22;100248.59;4885844;29;20045;-82
2021/06/21 06:13:09;;;;;;;2.15;1.63;;;;;;;32.54;35.93;100245.78;4841853;29;20107;-81
2021/06/21 06:15:35;;;;;;;2.70;1.70;;;;;;;32.81;34.79;100251.91;4844014;29;20391;-84
2021/06/21 06:18:02;;;;;;;1.52;1.33;;;;;;;33.04;34.37;100244.84;4878661;29;20079;-81
2021/06/21 06:20:28;;;;;;;1.98;1.40;;;;;;;33.22;33.66;100248.16;4888509;29;20130;-82
2021/06/21 06:22:54;;;;;;;2.00;1.50;;;;;;;33.80;33.56;100246.44;4841583;29;20053;-82
2021/06/21 06:25:23;;;;;;;1.75;1.40;;;;;;;33.65;33.56;100252.16;4880245;29;20479;-82
2021/06/21 06:27:50;;;;;;;2.28;1.40;;;;;;;34.10;32.89;100258.59;4873846;29;20085;-82
2021/06/21 06:30:17;;;;;;;3.35;1.40;;;;;;;33.83;33.19;100248.66;4851139;29;20562;-81
2021/06/21 06:32:43;;;;;;;1.83;1.38;;;;;;;33.64;33.29;100250.50;4842632;29;20109;-85
2021/06/21 06:35:11;;;;;;;1.60;1.40;;;;;;;33.97;32.65;100253.59;4855522;29;20049;-82
2021/06/21 06:37:47;;;;;;;1.50;1.23;;;;;;;33.53;33.50;100249.72;4852200;29;20052;-83
2021/06/21 06:40:14;;;;;;;2.95;1.42;;;;;;;34.15;32.42;100255.75;4829876;29;20149;-81
2021/06/21 06:42:42;;;;;;;1.60;1.48;;;;;;;34.24;32.31;100254.00;4854889;29;20427;-83
2021/06/21 06:45:08;;;;;;;1.70;1.40;;;;;;;34.22;32.44;100249.78;4842075;29;20041;-83
2021/06/21 06:47:35;;;;;;;3.10;1.60;;;;;;;35.07;31.39;100260.50;4837260;29;20144;-83
2021/06/21 06:50:02;;;;;;;2.05;1.63;;;;;;;35.38;31.27;100246.03;4878079;29;20037;-82
2021/06/21 06:52:31;;;;;;;1.75;1.50;;;;;;;35.41;30.71;100248.25;4887875;29;20531;-83
2021/06/21 06:57:39;;;;;;;2.25;2.10;;;;;;;35.25;31.11;100240.03;4867462;29;20391;-83
2021/06/21 07:00:07;;;;;;;2.03;1.83;;;;;;;34.92;31.95;100247.44;4867256;29;20055;-85
2021/06/21 07:02:35;;;;;;;2.40;1.52;;;;;;;34.38;32.81;100250.50;4841527;29;20143;-87
2021/06/21 07:05:04;;;;;;;1.60;1.50;;;;;;;36.07;30.62;100240.84;4847475;29;20152;-84
2021/06/21 07:07:32;;;;;;;2.55;1.80;;;;;;;36.30;30.53;100247.50;4882531;29;20657;-82
2021/06/21 07:09:59;;;;;;;2.35;1.50;;;;;;;35.34;31.44;100236.53;4898149;29;20049;-84
2021/06/21 07:12:25;;;;;;;3.40;1.40;;;;;;;34.98;32.17;100239.78;4863809;29;20041;-83
2021/06/21 07:14:52;;;;;;;2.47;1.55;;;;;;;34.36;32.99;100238.72;4859914;29;20093;-83
2021/06/21 07:17:19;;;;;;;1.52;1.30;;;;;;;35.36;31.88;100237.94;4882436;29;20188;-83
2021/06/21 07:19:45;;;;;;;1.33;1.23;;;;;;;35.33;31.51;100246.13;4891123;29;20056;-82
2021/06/21 07:22:12;;;;;;;2.15;1.20;;;;;;;36.33;29.65;100250.53;4870890;29;20048;-84
2021/06/21 07:24:38;;;;;;;2.70;1.40;;;;;;;36.51;28.26;100246.00;4864444;29;20109;-84
2021/06/21 07:27:05;;;;;;;1.67;1.40;;;;;;;37.47;26.75;100242.41;4855788;29;20258;-84
2021/06/21 07:29:32;;;;;;;2.83;1.40;;;;;;;37.59;27.89;100254.00;4863744;29;20618;-81
2021/06/21 07:31:59;;;;;;;2.05;1.50;;;;;;;38.19;27.64;100240.72;4844268;29;20153;-84
2021/06/21 07:34:26;;;;;;;1.80;1.25;;;;;;;38.54;26.95;100253.09;4866181;29;20067;-83
2021/06/21 07:36:53;;;;;;;3.45;1.30;;;;;;;38.53;26.25;100246.63;4832673;29;20124;-83
2021/06/21 07:39:19;;;;;;;3.60;1.30;;;;;;;38.59;26.73;100259.47;4865276;29;20049;-84
2021/06/21 07:41:47;;;;;;;2.13;1.33;;;;;;;38.93;26.20;100249.50;4890984;29;20049;-82
2021/06/21 07:44:14;;;;;;;1.17;1.10;;;;;;;38.81;26.59;100252.94;4890930;29;20048;-85
2021/06/21 07:46:40;;;;;;;1.50;1.40;;;;;;;38.14;28.13;100238.88;4859030;29;20063;-84
2021/06/21 07:49:07;;;;;;;2.30;1.40;;;;;;;36.63;28.96;100246.34;4893116;29;20089;-84
2021/06/21 07:51:33;;;;;;;1.88;1.42;;;;;;;37.37;28.17;100253.88;4871226;29;20048;-83
2021/06/21 07:54:00;;;;;;;1.40;1.30;;;;;;;38.03;27.43;100249.59;4873291;29;20044;-84
2021/06/21 07:56:27;;;;;;;1.40;1.30;;;;;;;38.11;26.85;100251.66;4841407;29;20057;-85
2021/06/21 07:58:53;;;;;;;2.90;1.20;;;;;;;38.64;27.02;100252.00;4881788;29;20072;-84
2021/06/21 08:01:20;;;;;;;2.47;1.45;;;;;;;39.26;26.20;100254.78;4896460;29;20044;-85
2021/06/21 08:03:47;;;;;;;1.27;1.20;;;;;;;38.48;26.51;100255.25;4868208;29;20139;-84
2021/06/21 08:06:14;;;;;;;2.35;1.35;;;;;;;38.40;25.95;100258.84;4872672;29;20030;-84
2021/06/21 08:08:41;;;;;;;1.23;1.20;;;;;;;39.35;25.29;100261.31;4864804;29;20067;-86
2021/06/21 08:11:10;;;;;;;1.30;1.30;;;;;;;37.93;26.58;100249.84;4881615;29;20144;-86
2021/06/21 08:13:37;;;;;;;1.50;1.45;;;;;;;38.17;26.41;100254.31;4857521;29;20366;-85
2021/06/21 08:16:04;;;;;;;1.40;1.40;;;;;;;37.34;27.28;100257.38;4863303;29;20053;-86
2021/06/21 08:18:31;;;;;;;1.60;1.50;;;;;;;39.07;26.25;100250.22;4875080;29;20055;-85
2021/06/21 08:20:59;;;;;;;1.65;1.40;;;;;;;39.77;24.77;100250.41;4885586;29;20041;-83
2021/06/21 08:23:26;;;;;;;2.15;1.48;;;;;;;37.90;26.66;100255.28;4848061;29;20120;-86
2021/06/21 08:26:10;;;;;;;1.95;1.85;;;;;;;37.14;27.84;100251.00;4859255;29;20052;-83
2021/06/21 08:28:40;;;;;;;1.88;1.40;;;;;;;39.04;26.11;100248.03;4889215;29;20160;-85
2021/06/21 08:31:06;;;;;;;1.92;1.50;;;;;;;39.79;24.81;100242.44;4884982;29;20055;-83
2021/06/21 08:33:32;;;;;;;3.10;1.65;;;;;;;40.65;24.65;100235.00;4871725;29;20045;-87
2021/06/21 08:36:01;;;;;;;2.08;1.30;;;;;;;41.30;23.07;100245.06;4860228;29;20041;-85
2021/06/21 08:38:30;;;;;;;1.50;1.40;;;;;;;40.90;23.09;100236.91;4878022;29;20148;-87
2021/06/21 08:41:04;;;;;;;1.45;1.35;;;;;;;40.62;23.36;100241.34;4871573;29;20045;-85
2021/06/21 08:43:32;;;;;;;1.23;1.10;;;;;;;40.68;23.08;100246.50;4838161;29;20040;-83
2021/06/21 08:46:00;;;;;;;1.63;1.05;;;;;;;40.46;23.34;100230.53;4853346;29;20041;-84
2021/06/21 08:48:29;;;;;;;2.55;1.60;;;;;;;40.61;23.42;100243.34;4859658;29;20059;-85
2021/06/21 08:50:57;;;;;;;1.65;1.52;;;;;;;39.29;24.91;100240.00;4859176;29;20093;-86
2021/06/21 08:53:25;;;;;;;1.50;1.42;;;;;;;38.49;26.51;100239.94;4868028;29;20104;-83
2021/06/21 08:55:51;;;;;;;2.08;1.33;;;;;;;38.08;26.66;100235.34;4876348;29;20086;-83
2021/06/21 08:58:19;;;;;;;1.60;1.50;;;;;;;37.50;27.86;100224.84;4878046;29;20041;-83
2021/06/21 09:00:48;;;;;;;1.50;1.40;;;;;;;38.58;26.09;100232.38;4847498;29;20041;-88
2021/06/21 09:03:16;;;;;;;1.70;1.40;;;;;;;38.53;26.10;100238.13;4836955;29;20033;-84
2021/06/21 09:05:43;;;;;;;1.30;1.30;;;;;;;40.34;24.59;100227.56;4853475;29;20490;-85
2021/06/21 09:08:10;;;;;;;1.55;1.30;;;;;;;41.33;23.17;100237.88;4852321;29;20117;-89
2021/06/21 09:10:39;;;;;;;1.33;1.23;;;;;;;41.06;23.16;100225.00;4868829;29;20045;-83
2021/06/21 09:13:15;;;;;;;2.88;1.33;;;;;;;40.12;23.67;100244.75;4855222;29;20813;-83
2021/06/21 09:15:56;;;;;;;1.30;1.20;;;;;;;40.11;23.96;100235.38;4850294;29;20060;-85
2021/06/21 09:18:38;;;;;;;1.40;1.30;;;;;;;39.31;24.58;100232.03;4852368;29;20184;-85
2021/06/21 09:33:29;;;;;;;1.30;1.20;;;;;;;40.01;25.66;100216.75;6194559;22;884345;-86
2021/06/21 09:35:58;;;;;;;1.85;1.40;;;;;;;41.00;24.59;100218.69;6211997;23;20082;-86
2021/06/21 09:38:29;;;;;;;2.28;1.40;;;;;;;40.29;24.41;100215.56;6217286;23;20028;-86
2021/06/21 09:41:06;;;;;;;1.20;1.20;;;;;;;40.06;24.84;100229.09;6210886;23;20027;31
2021/06/21 09:43:36;;;;;;;1.73;1.30;;;;;;;41.16;23.14;100227.44;6178336;23;20016;-83
2021/06/21 09:46:15;;;;;;;1.30;1.20;;;;;;;41.98;22.75;100235.56;6152310;23;20017;-85
2021/06/21 09:48:47;;;;;;;3.20;1.20;;;;;;;41.98;22.48;100229.88;6198119;23;20029;-84
2021/06/21 09:51:20;;;;;;;1.10;1.10;;;;;;;39.95;23.97;100223.75;6158940;23;20017;-85
2021/06/21 09:54:14;;;;;;;1.53;1.40;;;;;;;38.41;25.03;100215.31;6207221;23;20032;-86
2021/06/21 09:56:52;;;;;;;2.05;1.20;;;;;;;39.87;24.34;100210.44;6157559;23;20064;-85
2021/06/21 09:59:37;;;;;;;1.50;1.40;;;;;;;38.87;24.86;100216.03;6152335;23;20045;-87
2021/06/21 10:08:42;;;;;;;1.80;1.17;;;;;;;38.26;26.59;100207.22;6209213;22;20455;-87
2021/06/21 10:11:28;;;;;;;2.35;1.20;;;;;;;39.02;26.81;100207.97;6152326;23;20025;-86
2021/06/21 10:17:01;;;;;;;1.50;1.40;;;;;;;38.86;25.72;100220.88;6203513;22;20079;-86
2021/06/21 10:19:29;;;;;;;1.98;1.25;;;;;;;39.95;24.78;100212.44;6208109;23;20025;-86
2021/06/21 10:21:59;;;;;;;1.42;1.20;;;;;;;39.87;25.11;100210.44;6130113;23;20120;-87
2021/06/21 10:24:32;;;;;;;1.65;1.30;;;;;;;40.85;24.01;100205.06;6110468;23;20052;-86
2021/06/21 10:27:05;;;;;;;1.17;1.17;;;;;;;41.08;23.49;100216.97;6112734;23;20110;-85
2021/06/21 10:29:37;;;;;;;1.67;1.50;;;;;;;40.14;24.39;100188.59;6157155;23;20419;-85
2021/06/21 10:32:07;;;;;;;1.30;1.20;;;;;;;39.49;24.54;100194.09;6107450;23;20026;-86
2021/06/21 10:34:36;;;;;;;1.10;1.10;;;;;;;39.76;24.83;100192.13;6095795;23;20356;-85
2021/06/21 10:37:20;;;;;;;1.55;1.20;;;;;;;37.94;26.53;100189.38;6058706;23;20084;-84
2021/06/21 10:42:34;;;;;;;1.40;1.30;;;;;;;37.94;26.76;100178.09;6124693;23;20042;-85
2021/06/21 10:45:06;;;;;;;1.20;1.10;;;;;;;36.74;27.30;100184.16;6091347;23;20010;-85
2021/06/21 10:47:44;;;;;;;1.48;1.38;;;;;;;36.74;26.79;100178.50;6040751;23;20022;-85
2021/06/21 10:50:17;;;;;;;1.63;1.52;;;;;;;36.28;27.51;100182.22;6115113;23;20076;-83
2021/06/21 10:52:52;;;;;;;1.20;1.20;;;;;;;36.94;26.67;100181.75;6093767;23;20210;-85
2021/06/21 10:55:24;;;;;;;1.30;1.30;;;;;;;36.52;26.71;100180.06;6199064;23;20013;-83
2021/06/21 10:58:02;;;;;;;1.40;1.30;;;;;;;36.26;25.83;100170.41;6161592;23;20053;-84
2021/06/21 11:00:34;;;;;;;1.38;1.27;;;;;;;37.25;25.15;100166.16;6208183;23;20024;-87
2021/06/21 11:03:04;;;;;;;1.63;1.10;;;;;;;35.63;25.78;100161.31;6184608;23;20086;-84
2021/06/21 11:05:38;;;;;;;1.23;1.23;;;;;;;35.68;25.47;100171.66;6152833;23;20009;-83
2021/06/21 11:08:35;;;;;;;1.50;1.40;;;;;;;36.23;25.23;100169.88;6151639;23;20141;-87
2021/06/21 11:11:34;;;;;;;1.83;1.30;;;;;;;35.42;26.29;100169.19;6150817;23;20022;-85
2021/06/21 11:14:24;;;;;;;1.40;1.30;;;;;;;37.05;25.40;100173.94;6098792;23;20049;-83
2021/06/21 11:17:17;;;;;;;1.05;1.05;;;;;;;38.54;23.78;100169.19;6122354;23;20026;-84
2021/06/21 11:19:53;;;;;;;1.20;1.20;;;;;;;37.26;25.49;100163.06;6123198;23;20037;31
2021/06/21 11:23:01;;;;;;;1.10;1.10;;;;;;;38.27;24.58;100160.84;6121027;23;20030;-84
2021/06/21 11:25:31;;;;;;;1.58;1.00;;;;;;;38.02;25.38;100179.31;6072922;23;20022;-85
2021/06/21 11:28:00;;;;;;;1.23;1.13;;;;;;;38.23;25.29;100169.16;6095918;23;20029;-84
2021/06/21 11:30:31;;;;;;;1.30;0.75;;;;;;;37.80;26.19;100163.19;6116647;23;20026;-84
2021/06/21 11:33:05;;;;;;;1.15;0.68;;;;;;;37.06;26.86;100153.06;6109290;23;20018;-83
2021/06/21 11:36:04;;;;;;;0.45;0.40;;;;;;;36.04;28.31;100151.38;6140384;23;20070;-85
2021/06/21 11:38:40;;;;;;;1.55;0.73;;;;;;;36.07;28.05;100164.84;6075311;23;20025;-84
2021/06/21 11:41:28;;;;;;;0.60;0.55;;;;;;;35.38;27.99;100172.94;6044213;23;20030;-85
2021/06/21 11:44:02;;;;;;;1.05;0.80;;;;;;;36.15;27.30;100162.16;6095562;23;20021;-87
2021/06/21 11:46:40;;;;;;;0.90;0.90;;;;;;;35.95;27.72;100170.94;6046218;23;20048;-84
2021/06/21 11:49:12;;;;;;;0.60;0.60;;;;;;;35.61;27.34;100166.41;6136644;23;20445;-86
2021/06/21 11:52:01;;;;;;;0.80;0.80;;;;;;;35.38;27.23;100167.31;6090976;23;20022;-84
2021/06/21 11:54:30;;;;;;;1.10;0.70;;;;;;;35.73;26.66;100165.97;6116344;23;20045;-83
2021/06/21 11:57:01;;;;;;;0.60;0.60;;;;;;;35.33;27.07;100161.78;6111850;22;20112;-86
2021/06/21 11:59:31;;;;;;;0.60;0.60;;;;;;;35.38;27.05;100164.50;6211364;23;20048;-86
2021/06/21 12:02:04;;;;;;;0.50;0.40;;;;;;;35.04;27.38;100162.72;6168263;22;20013;-86
2021/06/21 12:04:42;;;;;;;0.50;0.50;;;;;;;35.03;26.51;100161.03;6127314;23;20029;-85
2021/06/21 12:10:52;;;;;;;0.55;0.30;;;;;;;34.86;26.23;100166.31;6248334;22;20020;-84
2021/06/21 12:13:24;;;;;;;0.30;0.30;;;;;;;34.74;26.48;100150.72;6189107;22;20074;-84
2021/06/21 12:16:15;;;;;;;0.30;0.30;;;;;;;35.17;26.28;100159.16;6157029;23;20036;-85